Time;durP1;ratioP1;P1;durP2;ratioP2;P2;SDS_P1;SDS_P2;PMS_P1;PMS_P2;Temp;Humidity;BMP_temperature;BMP_pressure;BME280_temperature;BME280_humidity;BME280_pressure;Samples;Min_cycle;Max_cycle;Signal;HPM_P1;HPM_P2
2022/05/29 00:00:09;;;;;;;7.90;2.55;;;29.10;90.30;;;;;;5107537;28;20114;-54
2022/05/29 00:02:36;;;;;;;10.40;2.38;;;29.00;90.30;;;;;;5107501;28;20039;-54
2022/05/29 00:05:03;;;;;;;41.42;4.57;;;29.00;90.50;;;;;;5103980;28;20312;-55
2022/05/29 00:07:30;;;;;;;64.20;7.65;;;29.00;90.60;;;;;;5101505;28;20336;-51
2022/05/29 00:09:56;;;;;;;38.30;5.13;;;29.00;90.70;;;;;;5107486;28;20020;-53
2022/05/29 00:12:26;;;;;;;40.88;5.25;;;29.00;90.80;;;;;;5107403;28;20043;-52
2022/05/29 00:15:02;;;;;;;19.02;3.60;;;29.00;91.10;;;;;;5107485;28;20200;-58
2022/05/29 00:17:29;;;;;;;17.23;3.92;;;28.90;90.90;;;;;;5107334;28;20016;-54
2022/05/29 00:19:56;;;;;;;19.20;3.50;;;28.90;90.90;;;;;;5106908;28;20012;-54
2022/05/29 00:22:23;;;;;;;19.85;3.00;;;28.90;91.10;;;;;;5107661;28;20153;-52
2022/05/29 00:24:51;;;;;;;11.32;3.10;;;28.90;91.00;;;;;;5107177;28;20016;-55
2022/05/29 00:27:18;;;;;;;31.38;4.30;;;28.90;91.00;;;;;;5107398;28;20224;-56
2022/05/29 00:29:45;;;;;;;14.27;3.30;;;28.90;90.90;;;;;;5107328;28;20020;-51
2022/05/29 00:32:12;;;;;;;14.43;3.40;;;28.90;90.90;;;;;;5107029;28;20087;-56
2022/05/29 00:34:39;;;;;;;19.58;3.30;;;28.90;91.00;;;;;;5085280;28;20045;-57
2022/05/29 00:37:07;;;;;;;12.02;2.80;;;28.90;91.10;;;;;;5106915;28;20035;-53
2022/05/29 00:39:34;;;;;;;12.55;2.50;;;28.90;91.00;;;;;;5106837;28;20016;-51
2022/05/29 00:42:10;;;;;;;9.48;2.42;;;28.90;91.10;;;;;;5107026;28;20034;-54
2022/05/29 00:44:38;;;;;;;9.32;2.22;;;28.80;91.10;;;;;;5107603;28;20087;-53
2022/05/29 00:47:12;;;;;;;7.82;1.90;;;28.80;91.00;;;;;;5107873;28;20114;-49
2022/05/29 00:49:41;;;;;;;11.10;1.95;;;28.80;91.00;;;;;;5107025;28;20020;-54
2022/05/29 00:52:27;;;;;;;6.70;1.75;;;28.80;91.00;;;;;;5106630;28;20031;-52
2022/05/29 00:55:11;;;;;;;5.90;1.65;;;28.80;90.90;;;;;;5106537;28;20019;-56
2022/05/29 00:57:45;;;;;;;9.82;1.77;;;28.80;91.00;;;;;;5106482;28;20054;-56
2022/05/29 01:00:18;;;;;;;7.20;1.60;;;28.70;90.90;;;;;;5106594;28;20028;-51
2022/05/29 01:02:46;;;;;;;13.25;2.47;;;28.70;90.90;;;;;;5106847;28;20024;-49
2022/05/29 01:05:15;;;;;;;36.97;4.28;;;28.70;90.90;;;;;;5106172;28;20016;-58
2022/05/29 01:07:49;;;;;;;44.00;5.28;;;28.70;90.90;;;;;;5097435;28;20332;-56
2022/05/29 01:10:16;;;;;;;52.58;5.82;;;28.70;90.90;;;;;;5091535;28;20082;-55
2022/05/29 01:12:52;;;;;;;91.65;8.18;;;28.70;90.90;;;;;;5085847;28;20022;-53
2022/05/29 01:15:55;;;;;;;71.90;8.25;;;28.70;90.90;;;;;;5086834;28;20017;-55
2022/05/29 01:19:06;;;;;;;53.40;6.93;;;28.70;91.00;;;;;;5086118;28;20021;-53
2022/05/29 01:21:51;;;;;;;29.40;4.70;;;28.70;91.20;;;;;;5085866;28;20081;-58
2022/05/29 01:24:47;;;;;;;19.48;3.17;;;28.70;91.10;;;;;;5066853;28;20025;-53
2022/05/29 01:27:35;;;;;;;11.73;2.38;;;28.60;91.30;;;;;;5083939;28;20032;-54
2022/05/29 01:30:22;;;;;;;11.95;2.25;;;28.40;91.60;;;;;;5085581;28;20333;-56
2022/05/29 01:33:13;;;;;;;8.35;2.15;;;28.30;91.70;;;;;;5085548;28;20036;-54
2022/05/29 01:35:56;;;;;;;8.52;1.80;;;28.10;91.60;;;;;;5085384;28;20021;-59
2022/05/29 01:38:43;;;;;;;;;;;28.10;91.60;;;;;;5084450;28;20020;-60
2022/05/29 01:41:30;;;;;;;16.45;2.20;;;27.90;91.80;;;;;;5085737;28;19915;-56
2022/05/29 01:44:18;;;;;;;26.92;2.88;;;27.80;91.70;;;;;;5085099;28;20043;-58
2022/05/29 01:47:02;;;;;;;24.77;3.33;;;27.80;91.70;;;;;;5085288;28;20300;-61
2022/05/29 01:49:35;;;;;;;36.08;3.75;;;27.80;91.80;;;;;;5085084;28;20028;-53
2022/05/29 01:52:18;;;;;;;142.65;13.15;;;27.70;91.80;;;;;;5066404;28;20044;-52
2022/05/29 01:55:10;;;;;;;110.72;9.02;;;27.70;91.80;;;;;;5084476;28;20128;-55
2022/05/29 01:57:59;;;;;;;80.10;7.30;;;27.70;91.80;;;;;;5066915;28;20209;-54
2022/05/29 02:01:01;;;;;;;61.13;5.75;;;27.70;91.90;;;;;;5084475;28;20130;-56
2022/05/29 02:03:42;;;;;;;42.38;4.43;;;27.70;92.10;;;;;;4999965;28;20032;-59
2022/05/29 02:06:17;;;;;;;25.10;2.95;;;27.60;92.10;;;;;;5084428;28;20094;-53
2022/05/29 02:08:54;;;;;;;30.58;3.08;;;27.70;91.90;;;;;;5084876;28;20031;-54
2022/05/29 02:11:26;;;;;;;26.48;2.65;;;27.80;91.80;;;;;;5084344;28;20012;-50
2022/05/29 02:13:57;;;;;;;17.73;2.05;;;27.90;91.70;;;;;;5084351;28;20077;-57
2022/05/29 02:16:53;;;;;;;15.43;1.77;;;28.00;91.60;;;;;;5082603;28;20019;-53
2022/05/29 02:19:36;;;;;;;12.98;2.05;;;28.00;91.50;;;;;;5069161;28;20039;-51
2022/05/29 02:22:36;;;;;;;12.50;1.60;;;28.00;91.40;;;;;;5084221;28;20019;-55
2022/05/29 02:28:19;;;;;;;8.57;1.60;;;28.10;91.30;;;;;;4983462;28;20031;-55
2022/05/29 02:30:57;;;;;;;7.72;1.27;;;28.10;91.30;;;;;;4983739;28;20255;-48
2022/05/29 02:33:46;;;;;;;4.63;1.20;;;28.10;91.30;;;;;;4991447;28;20274;-55
2022/05/29 02:36:20;;;;;;;7.43;1.15;;;28.10;91.30;;;;;;4974192;28;20106;-55
2022/05/29 02:39:25;;;;;;;6.57;1.00;;;28.10;91.30;;;;;;4986902;28;20089;-56
2022/05/29 02:42:14;;;;;;;7.68;1.30;;;28.10;91.30;;;;;;4988509;28;20034;-58
2022/05/29 02:44:43;;;;;;;5.18;1.27;;;28.10;91.30;;;;;;5002632;28;20045;-55
2022/05/29 02:47:22;;;;;;;4.38;0.98;;;28.10;91.40;;;;;;5002645;28;20069;-55
2022/05/29 02:49:56;;;;;;;6.97;2.53;;;28.20;91.40;;;;;;5003024;28;20046;-53
2022/05/29 02:52:23;;;;;;;7.82;2.00;;;28.10;91.30;;;;;;5002822;28;20018;-51
2022/05/29 02:54:53;;;;;;;6.80;1.52;;;28.20;91.30;;;;;;5006054;28;20110;-54
2022/05/29 02:57:19;;;;;;;5.82;1.63;;;28.10;91.30;;;;;;5104188;28;20211;-50
2022/05/29 02:59:52;;;;;;;4.30;1.30;;;28.10;91.30;;;;;;5104074;28;20019;-56
2022/05/29 03:02:39;;;;;;;5.80;1.48;;;28.10;91.20;;;;;;5104518;28;20020;-60
2022/05/29 03:05:31;;;;;;;6.68;1.40;;;28.10;91.20;;;;;;5104140;28;20103;-57
2022/05/29 03:11:09;;;;;;;6.32;1.75;;;28.10;91.00;;;;;;5093755;28;20046;-59
2022/05/29 03:14:20;;;;;;;5.80;1.90;;;28.10;90.90;;;;;;5104369;28;20064;-52
2022/05/29 03:17:09;;;;;;;6.00;1.80;;;28.10;90.80;;;;;;5099699;28;20039;-56
2022/05/29 03:20:06;;;;;;;4.00;1.48;;;28.00;90.80;;;;;;5104186;28;20023;-54
2022/05/29 03:23:00;;;;;;;7.30;1.40;;;28.00;90.90;;;;;;5104342;28;20312;-53
2022/05/29 03:25:57;;;;;;;4.90;1.90;;;28.00;91.00;;;;;;5086039;28;20062;-54
2022/05/29 03:29:03;;;;;;;6.45;1.83;;;28.00;90.90;;;;;;5101823;28;20035;-54
2022/05/29 03:31:31;;;;;;;5.55;1.85;;;28.00;90.90;;;;;;5090871;28;20038;-53
2022/05/29 03:33:58;;;;;;;7.53;1.90;;;28.00;90.80;;;;;;5104109;28;20447;-52
2022/05/29 03:36:34;;;;;;;9.23;1.92;;;28.00;90.80;;;;;;5103884;28;20016;-54
2022/05/29 03:39:00;;;;;;;5.93;1.48;;;27.90;90.80;;;;;;5104270;28;20103;-53
2022/05/29 03:41:44;;;;;;;5.35;1.40;;;28.00;90.70;;;;;;5103900;28;20020;-53
2022/05/29 03:44:16;;;;;;;5.00;1.33;;;28.00;90.80;;;;;;5103697;28;20020;-55
2022/05/29 03:46:44;;;;;;;4.32;1.30;;;28.00;90.80;;;;;;5104033;28;20083;-50
2022/05/29 03:49:12;;;;;;;7.95;2.20;;;27.90;90.80;;;;;;5103662;28;20095;-53
2022/05/29 03:51:39;;;;;;;7.72;2.08;;;27.90;90.80;;;;;;5103922;28;20016;-56
2022/05/29 03:54:06;;;;;;;9.68;5.35;;;28.00;90.90;;;;;;5103650;28;20096;-48
2022/05/29 03:56:33;;;;;;;10.15;5.43;;;28.00;91.10;;;;;;5103792;28;20016;-53
2022/05/29 03:59:00;;;;;;;9.95;7.15;;;27.90;90.80;;;;;;5104112;28;20055;-55
2022/05/29 04:01:27;;;;;;;13.10;8.65;;;27.90;90.80;;;;;;5103563;28;20308;-50
2022/05/29 04:03:54;;;;;;;11.55;6.82;;;28.00;90.90;;;;;;5104075;28;20024;-52
2022/05/29 04:06:26;;;;;;;10.82;5.72;;;27.90;90.80;;;;;;5103668;28;20012;-54
2022/05/29 04:14:29;;;;;;;8.93;3.03;;;27.90;90.80;;;;;;5107060;28;20095;-54
2022/05/29 04:16:55;;;;;;;8.57;2.75;;;27.90;90.90;;;;;;5105071;28;20031;-53
2022/05/29 04:19:22;;;;;;;6.30;2.38;;;27.90;90.90;;;;;;5101182;28;20023;-54
2022/05/29 04:21:49;;;;;;;10.40;2.25;;;27.90;90.80;;;;;;5105790;28;20012;-53
2022/05/29 04:24:20;;;;;;;6.63;2.20;;;27.90;90.90;;;;;;5100027;28;20065;-55
2022/05/29 04:26:50;;;;;;;6.95;1.88;;;27.90;90.90;;;;;;5106086;28;20040;-51
2022/05/29 04:29:20;;;;;;;10.38;2.05;;;27.90;90.90;;;;;;5100288;28;20024;-55
2022/05/29 04:34:32;;;;;;;7.78;1.60;;;27.80;90.80;;;;;;5102142;28;20051;-49
2022/05/29 04:36:58;;;;;;;4.72;1.30;;;27.90;90.90;;;;;;5107063;28;20322;-50
2022/05/29 04:39:26;;;;;;;5.47;1.10;;;27.90;90.90;;;;;;5106925;28;20095;-52
2022/05/29 04:41:53;;;;;;;7.43;1.50;;;27.90;90.80;;;;;;5106363;28;20066;-52
2022/05/29 04:44:19;;;;;;;6.68;1.80;;;27.80;90.70;;;;;;5106760;28;20137;-52
2022/05/29 04:46:53;;;;;;;4.82;1.10;;;27.80;90.70;;;;;;5105695;28;20026;-55
2022/05/29 04:49:20;;;;;;;5.88;1.05;;;27.80;90.60;;;;;;5078938;28;20197;-51
2022/05/29 04:51:46;;;;;;;7.55;1.20;;;27.80;90.60;;;;;;5103926;28;20016;-53
2022/05/29 04:54:13;;;;;;;3.13;0.93;;;27.80;90.50;;;;;;5107120;28;20020;-51
2022/05/29 04:56:39;;;;;;;7.45;1.10;;;27.70;90.50;;;;;;5106459;28;20023;-49
2022/05/29 04:59:06;;;;;;;7.72;1.00;;;27.80;90.50;;;;;;5106959;28;20032;-50
2022/05/29 05:01:32;;;;;;;9.25;0.90;;;27.70;90.50;;;;;;5106265;28;20312;-52
2022/05/29 05:03:59;;;;;;;4.03;0.73;;;27.70;90.50;;;;;;5107228;28;20028;-52
2022/05/29 05:06:27;;;;;;;8.43;0.95;;;27.70;90.50;;;;;;5106371;28;20065;-50
2022/05/29 05:08:54;;;;;;;6.93;0.90;;;27.70;90.50;;;;;;5106588;28;20204;-59
2022/05/29 05:11:21;;;;;;;4.63;0.80;;;27.70;90.40;;;;;;5106443;28;20169;-50
2022/05/29 05:13:47;;;;;;;5.75;0.93;;;27.70;90.30;;;;;;5106727;28;20047;-50
2022/05/29 05:16:14;;;;;;;7.22;0.88;;;27.70;90.30;;;;;;5106096;28;20012;-51
2022/05/29 05:18:41;;;;;;;6.38;0.80;;;27.70;90.30;;;;;;5106374;28;20020;-47
2022/05/29 05:21:08;;;;;;;5.70;1.20;;;27.70;90.30;;;;;;5105271;28;20129;-48
2022/05/29 05:23:35;;;;;;;4.38;0.65;;;27.70;90.30;;;;;;5106202;28;20087;-47
2022/05/29 05:26:08;;;;;;;7.63;0.90;;;27.70;90.30;;;;;;5105886;28;20027;-47
2022/05/29 05:28:35;;;;;;;3.33;0.60;;;27.60;90.20;;;;;;5106411;28;20024;-47
2022/05/29 05:31:01;;;;;;;3.95;0.70;;;27.60;90.20;;;;;;5106273;28;20096;-59
2022/05/29 05:33:31;;;;;;;7.38;0.80;;;27.60;90.20;;;;;;5106183;28;20036;-48
2022/05/29 05:35:57;;;;;;;6.07;1.00;;;27.60;90.20;;;;;;5106179;28;20045;-49
2022/05/29 05:38:24;;;;;;;3.63;0.68;;;27.60;90.20;;;;;;5106328;28;20028;-47
2022/05/29 05:40:50;;;;;;;4.43;0.77;;;27.60;90.20;;;;;;5106055;28;20081;-49
2022/05/29 05:43:19;;;;;;;5.32;0.93;;;27.60;90.20;;;;;;5105696;28;20059;-48
2022/05/29 05:45:47;;;;;;;5.28;0.63;;;27.50;90.20;;;;;;5105608;28;20024;-52
2022/05/29 05:48:14;;;;;;;6.30;0.68;;;27.50;90.30;;;;;;5105495;28;20039;-57
2022/05/29 05:50:40;;;;;;;5.75;0.75;;;27.50;90.20;;;;;;5104966;28;20043;-57
2022/05/29 05:53:07;;;;;;;4.22;0.88;;;27.50;90.10;;;;;;5088345;28;20028;-53
2022/05/29 05:55:36;;;;;;;6.60;0.80;;;27.40;90.20;;;;;;5091809;28;20187;-58
2022/05/29 05:58:04;;;;;;;6.45;1.10;;;27.50;90.20;;;;;;5090054;28;20032;-55
2022/05/29 06:00:30;;;;;;;6.82;0.85;;;27.40;90.30;;;;;;5084661;28;20087;-56
2022/05/29 06:02:57;;;;;;;5.82;0.80;;;27.40;90.40;;;;;;5084742;28;20182;-55
2022/05/29 06:05:23;;;;;;;7.45;0.82;;;27.30;90.50;;;;;;5084606;28;20320;-54
2022/05/29 06:07:50;;;;;;;4.28;0.63;;;27.30;90.40;;;;;;5084699;28;20059;-54
2022/05/29 06:10:18;;;;;;;5.03;0.90;;;27.40;90.50;;;;;;5084293;28;20017;-52
2022/05/29 06:12:45;;;;;;;7.65;0.90;;;27.40;90.50;;;;;;5084793;28;20352;-54
2022/05/29 06:15:12;;;;;;;3.70;0.85;;;27.40;90.50;;;;;;5084687;28;20017;-52
2022/05/29 06:17:38;;;;;;;3.58;0.60;;;27.40;90.50;;;;;;5084471;28;20296;-51
2022/05/29 06:20:07;;;;;;;4.28;0.60;;;27.30;90.50;;;;;;5084430;28;20025;-55
2022/05/29 06:22:40;;;;;;;5.72;0.60;;;27.30;90.50;;;;;;5084436;28;20029;-55
2022/05/29 06:25:10;;;;;;;4.25;0.70;;;27.30;90.50;;;;;;5084121;28;20016;-57
2022/05/29 06:27:40;;;;;;;4.63;0.88;;;27.40;90.50;;;;;;5084254;28;20195;-54
2022/05/29 06:30:09;;;;;;;5.30;0.70;;;27.40;90.60;;;;;;5084175;28;20031;-56
2022/05/29 06:32:36;;;;;;;5.00;0.77;;;27.40;90.60;;;;;;5083738;28;20063;-51
2022/05/29 06:35:05;;;;;;;4.63;0.70;;;27.30;90.50;;;;;;5081843;28;20039;-53
2022/05/29 06:37:31;;;;;;;6.60;0.60;;;27.30;90.60;;;;;;5104593;28;20039;-52
2022/05/29 06:39:58;;;;;;;4.30;0.73;;;27.30;90.50;;;;;;5104250;28;20020;-53
2022/05/29 06:42:26;;;;;;;6.10;0.80;;;27.30;90.60;;;;;;5104437;28;20024;-54
2022/05/29 06:44:52;;;;;;;5.82;0.55;;;27.30;90.60;;;;;;5104399;28;20042;-58
2022/05/29 06:47:19;;;;;;;4.93;0.73;;;27.30;90.60;;;;;;5104256;28;20050;-53
2022/05/29 06:49:49;;;;;;;4.82;0.70;;;27.30;90.70;;;;;;5086347;28;20023;-56
2022/05/29 06:52:16;;;;;;;5.22;0.90;;;27.30;90.60;;;;;;5104405;28;20088;-53
2022/05/29 06:54:43;;;;;;;3.17;0.68;;;27.30;90.60;;;;;;5104075;28;20038;-51
2022/05/29 06:57:12;;;;;;;6.28;0.70;;;27.30;90.60;;;;;;5100455;28;20028;-51
2022/05/29 07:08:01;;;;;;;5.25;0.73;;;27.30;90.90;;;;;;5104122;28;20031;-53
2022/05/29 07:10:33;;;;;;;2.85;0.50;;;27.20;90.80;;;;;;5103762;28;20312;-51
2022/05/29 07:13:01;;;;;;;3.65;0.77;;;27.20;90.90;;;;;;5104213;28;20091;-52
2022/05/29 07:15:29;;;;;;;6.88;0.80;;;27.20;90.90;;;;;;5103845;28;20020;-59
2022/05/29 07:17:55;;;;;;;5.00;0.80;;;27.20;90.80;;;;;;5104075;28;20087;-53
2022/05/29 07:20:22;;;;;;;3.28;0.70;;;27.20;90.90;;;;;;5103769;28;20070;-55
2022/05/29 07:22:48;;;;;;;3.83;1.00;;;27.30;90.90;;;;;;5103989;28;20050;-53
2022/05/29 07:25:15;;;;;;;3.70;0.90;;;27.30;90.90;;;;;;5103615;28;20016;-55
2022/05/29 07:27:41;;;;;;;5.28;0.90;;;27.30;90.90;;;;;;5104051;28;20032;-52
2022/05/29 07:30:09;;;;;;;6.15;1.27;;;27.20;91.00;;;;;;5103730;28;20020;-57
2022/05/29 07:32:35;;;;;;;5.95;1.00;;;27.20;91.00;;;;;;5103555;28;20024;-51
2022/05/29 07:35:02;;;;;;;4.90;0.80;;;27.20;91.00;;;;;;5103734;28;20020;-54
2022/05/29 07:37:29;;;;;;;8.32;0.88;;;27.20;91.00;;;;;;5103910;28;20016;-53
2022/05/29 07:39:55;;;;;;;5.00;0.90;;;27.20;90.90;;;;;;5103623;28;20377;-54
2022/05/29 07:45:09;;;;;;;4.50;0.88;;;27.30;91.00;;;;;;5107562;28;20026;-51
2022/05/29 07:47:42;;;;;;;6.55;0.90;;;27.30;90.90;;;;;;5108001;28;20034;-52
2022/05/29 07:50:12;;;;;;;5.00;0.90;;;27.30;90.80;;;;;;5107365;28;20243;-57
2022/05/29 07:52:39;;;;;;;6.53;0.88;;;27.30;90.90;;;;;;5107818;28;20137;-52
2022/05/29 07:55:06;;;;;;;7.63;0.80;;;27.30;90.90;;;;;;5107429;28;20020;-55
2022/05/29 07:57:32;;;;;;;6.47;0.80;;;27.30;90.90;;;;;;5107668;28;20020;-52
2022/05/29 07:59:59;;;;;;;5.13;0.70;;;27.20;90.80;;;;;;5107292;28;20047;-53
2022/05/29 08:02:25;;;;;;;5.38;0.73;;;27.20;90.80;;;;;;5107337;28;20024;-53
2022/05/29 08:04:53;;;;;;;2.88;0.70;;;27.20;90.80;;;;;;5107321;28;20024;-53
2022/05/29 08:07:21;;;;;;;5.20;0.95;;;27.20;90.80;;;;;;5107124;28;20051;-53
2022/05/29 08:09:47;;;;;;;3.08;0.60;;;27.20;90.80;;;;;;5106993;28;20381;-52
2022/05/29 08:12:14;;;;;;;6.47;0.90;;;27.20;90.80;;;;;;5107146;28;20020;-51
2022/05/29 08:14:41;;;;;;;3.75;0.70;;;27.20;90.80;;;;;;5106967;28;20016;-55
2022/05/29 08:17:09;;;;;;;4.47;0.60;;;27.20;90.80;;;;;;5107083;28;20016;-51
2022/05/29 08:19:38;;;;;;;5.15;1.05;;;27.20;90.80;;;;;;5106963;28;20315;-51
2022/05/29 08:22:05;;;;;;;5.13;0.80;;;27.10;90.70;;;;;;5106816;28;20256;-57
2022/05/29 08:30:37;;;;;;;4.00;1.00;;;27.20;90.70;;;;;;5086378;28;20204;-53
2022/05/29 08:33:06;;;;;;;5.18;0.60;;;27.20;90.70;;;;;;5106458;28;20048;-53
2022/05/29 08:35:34;;;;;;;4.32;0.85;;;27.20;90.60;;;;;;5106692;28;20008;-52
2022/05/29 08:38:02;;;;;;;5.80;0.60;;;27.10;90.60;;;;;;5106904;28;20038;-57
2022/05/29 08:40:31;;;;;;;7.40;1.00;;;27.10;90.60;;;;;;5106491;28;20233;-53
2022/05/29 08:42:58;;;;;;;4.18;0.65;;;27.10;90.50;;;;;;5106656;28;20073;-53
2022/05/29 08:45:28;;;;;;;7.78;0.90;;;27.10;90.50;;;;;;5106641;28;20079;-51
2022/05/29 08:47:57;;;;;;;6.05;0.70;;;27.10;90.50;;;;;;5106656;28;20039;-56
2022/05/29 08:50:53;;;;;;;6.45;0.70;;;27.10;90.50;;;;;;5106133;28;20039;-52
2022/05/29 08:53:42;;;;;;;5.15;0.60;;;27.10;90.50;;;;;;5106810;28;20020;-52
2022/05/29 08:56:18;;;;;;;5.60;0.70;;;27.10;90.50;;;;;;5050967;28;20031;-54
2022/05/29 08:59:04;;;;;;;4.20;0.80;;;27.10;90.40;;;;;;5106698;28;20024;-54
2022/05/29 09:01:44;;;;;;;3.58;0.60;;;27.00;90.50;;;;;;5106115;28;20371;-57
2022/05/29 09:04:34;;;;;;;4.55;0.75;;;27.00;90.30;;;;;;5105943;28;20066;-53
2022/05/29 09:07:04;;;;;;;3.70;0.80;;;27.00;90.30;;;;;;5105832;28;20059;-53
2022/05/29 09:09:34;;;;;;;6.38;0.85;;;27.00;90.30;;;;;;5106007;28;20023;-54
2022/05/29 09:12:36;;;;;;;7.57;0.80;;;27.00;90.20;;;;;;5105865;28;20040;-54
2022/05/29 09:15:07;;;;;;;7.53;0.90;;;27.00;90.30;;;;;;5106055;28;20243;-52
2022/05/29 09:17:50;;;;;;;6.60;0.77;;;27.00;90.30;;;;;;5098548;28;20025;-55
2022/05/29 09:20:35;;;;;;;4.05;0.82;;;27.00;90.30;;;;;;5077630;28;20025;-55
2022/05/29 09:23:03;;;;;;;2.53;0.68;;;27.00;90.30;;;;;;5105553;28;20031;-53
2022/05/29 09:25:36;;;;;;;5.80;0.82;;;27.00;90.30;;;;;;5106005;28;20026;-55
2022/05/29 09:28:07;;;;;;;8.80;0.90;;;27.00;90.20;;;;;;5105833;28;20031;-53
2022/05/29 09:30:34;;;;;;;6.07;0.85;;;27.00;90.20;;;;;;5105979;28;20073;-52
2022/05/29 09:33:06;;;;;;;3.40;0.65;;;26.90;90.20;;;;;;5105517;28;20040;-52
2022/05/29 09:35:45;;;;;;;3.60;0.80;;;27.00;90.20;;;;;;5105385;28;20020;-56
2022/05/29 09:38:15;;;;;;;4.38;0.70;;;26.90;90.20;;;;;;5105945;28;20209;-55
2022/05/29 09:40:55;;;;;;;5.43;0.88;;;27.00;90.10;;;;;;5105633;28;20020;-51
2022/05/29 09:43:24;;;;;;;2.78;0.70;;;27.00;90.10;;;;;;5105693;28;20027;-54
2022/05/29 09:45:54;;;;;;;4.13;0.70;;;27.00;90.10;;;;;;5105206;28;20062;-51
2022/05/29 09:51:36;;;;;;;3.75;0.70;;;26.90;90.20;;;;;;5105080;28;20339;-52
2022/05/29 09:54:06;;;;;;;3.40;0.70;;;26.90;90.20;;;;;;5105644;28;20304;-55
2022/05/29 09:56:35;;;;;;;4.95;0.95;;;26.90;90.50;;;;;;5105171;28;20383;-55
2022/05/29 09:59:17;;;;;;;6.05;1.08;;;26.90;90.30;;;;;;5105549;28;20035;-54
2022/05/29 10:01:45;;;;;;;6.80;0.88;;;26.90;90.30;;;;;;5104511;28;20228;-52
2022/05/29 10:04:30;;;;;;;5.80;1.02;;;26.90;90.30;;;;;;5097611;28;20197;-55
2022/05/29 10:06:58;;;;;;;5.95;1.00;;;26.90;90.30;;;;;;5104338;28;20012;-56
2022/05/29 10:09:27;;;;;;;6.05;0.95;;;26.90;90.30;;;;;;5104852;28;20304;-57
2022/05/29 10:11:59;;;;;;;3.95;0.70;;;26.90;90.30;;;;;;5104704;28;20020;-56
2022/05/29 10:14:42;;;;;;;9.35;0.98;;;26.80;90.30;;;;;;5104649;28;20015;-53
2022/05/29 10:17:38;;;;;;;4.75;1.20;;;26.80;90.20;;;;;;5104997;28;20054;-57
2022/05/29 10:20:31;;;;;;;7.05;1.00;;;26.80;90.10;;;;;;5080618;28;20055;-52
2022/05/29 10:23:02;;;;;;;5.22;0.82;;;26.80;90.10;;;;;;5104737;28;20028;-55
2022/05/29 10:25:33;;;;;;;4.15;0.60;;;26.80;90.10;;;;;;5104828;28;20019;-53
2022/05/29 10:28:15;;;;;;;6.82;0.82;;;26.90;90.00;;;;;;5104790;28;20091;-54
2022/05/29 10:30:50;;;;;;;7.10;1.10;;;26.90;90.00;;;;;;5104331;28;20020;-54
2022/05/29 10:33:22;;;;;;;5.28;0.90;;;26.90;90.00;;;;;;5104369;28;20416;-52
2022/05/29 10:35:50;;;;;;;6.40;1.10;;;26.90;89.90;;;;;;5104334;28;20020;-52
2022/05/29 10:38:19;;;;;;;2.83;0.70;;;26.90;89.70;;;;;;5104703;28;20016;-55
2022/05/29 10:40:50;;;;;;;4.03;0.68;;;26.90;89.70;;;;;;5104279;28;20043;-56
2022/05/29 10:43:42;;;;;;;5.72;0.70;;;26.90;89.50;;;;;;5104691;28;20027;-58
2022/05/29 10:46:16;;;;;;;5.43;0.80;;;26.90;89.50;;;;;;5084958;28;20036;-56
2022/05/29 10:49:26;;;;;;;5.03;0.60;;;26.90;90.00;;;;;;5104697;28;20035;-52
2022/05/29 10:52:02;;;;;;;5.88;0.90;;;26.90;89.30;;;;;;5104099;28;20031;-54
2022/05/29 10:55:04;;;;;;;5.88;1.00;;;26.90;89.30;;;;;;5104161;28;20020;-51
2022/05/29 10:57:48;;;;;;;5.60;0.80;;;26.90;89.30;;;;;;5104211;28;20020;-62
2022/05/29 11:00:42;;;;;;;6.68;1.10;;;26.90;89.30;;;;;;5104192;28;20031;-52
2022/05/29 11:03:35;;;;;;;4.55;0.85;;;26.90;89.30;;;;;;5104315;28;20118;-55
2022/05/29 11:06:43;;;;;;;3.03;0.77;;;26.90;89.30;;;;;;5101687;28;20023;-52
2022/05/29 11:09:48;;;;;;;6.40;1.00;;;26.90;89.30;;;;;;5076863;28;20038;-53
2022/05/29 11:12:17;;;;;;;8.15;1.17;;;26.90;89.30;;;;;;5043149;28;20036;-55
2022/05/29 11:15:15;;;;;;;7.00;1.00;;;26.90;89.40;;;;;;5100858;28;20020;-55
2022/05/29 11:18:13;;;;;;;7.13;1.20;;;26.90;89.30;;;;;;5103593;28;20020;-55
2022/05/29 11:21:03;;;;;;;7.80;1.50;;;27.00;89.30;;;;;;5108138;28;20012;-52
2022/05/29 11:24:02;;;;;;;7.88;1.38;;;27.00;89.30;;;;;;5108713;28;20020;-54
2022/05/29 11:26:39;;;;;;;3.78;1.23;;;27.10;89.50;;;;;;5108224;28;20331;-56
2022/05/29 11:29:35;;;;;;;9.23;1.30;;;27.10;89.30;;;;;;5108360;28;20291;-52
2022/05/29 11:32:10;;;;;;;5.75;1.50;;;27.10;89.30;;;;;;5108113;28;20268;-52
2022/05/29 11:35:12;;;;;;;8.15;1.30;;;27.30;89.10;;;;;;5107564;28;20058;-51
2022/05/29 11:38:16;;;;;;;3.60;1.10;;;27.60;88.20;;;;;;5107544;28;20022;-53
2022/05/29 11:40:54;;;;;;;5.80;1.23;;;27.90;87.30;;;;;;5108232;28;20030;-54
2022/05/29 11:43:45;;;;;;;4.28;1.35;;;28.10;87.60;;;;;;5107948;28;20050;-59
2022/05/29 11:52:19;;;;;;;5.63;1.42;;;27.70;87.70;;;;;;5107589;28;20216;-59
2022/05/29 11:54:51;;;;;;;7.43;1.27;;;27.60;88.00;;;;;;5107514;28;20028;-57
2022/05/29 11:57:43;;;;;;;7.20;1.65;;;27.60;88.20;;;;;;5107435;28;20040;-49
2022/05/29 12:00:22;;;;;;;6.22;0.85;;;27.60;88.50;;;;;;5107763;28;20028;-53
2022/05/29 12:02:56;;;;;;;3.85;0.90;;;27.50;88.50;;;;;;5107259;28;20020;-55
2022/05/29 12:05:28;;;;;;;6.47;1.13;;;27.50;88.50;;;;;;5107845;28;20020;-58
2022/05/29 12:08:01;;;;;;;4.72;1.10;;;27.50;88.60;;;;;;5107262;28;20016;-51
2022/05/29 12:10:51;;;;;;;9.05;1.27;;;27.50;88.70;;;;;;5107252;28;20024;-55
2022/05/29 12:13:20;;;;;;;6.63;1.10;;;27.50;88.80;;;;;;5106723;28;20031;-54
2022/05/29 12:15:54;;;;;;;4.70;1.20;;;27.50;88.90;;;;;;5107502;28;20069;-51
2022/05/29 12:18:22;;;;;;;8.45;1.40;;;27.50;89.00;;;;;;5107228;28;20308;-59
2022/05/29 12:20:54;;;;;;;5.85;1.00;;;27.50;89.10;;;;;;5106707;28;20039;-51
2022/05/29 12:23:26;;;;;;;8.77;1.80;;;27.50;89.30;;;;;;5106996;28;20020;-51
2022/05/29 12:26:16;;;;;;;7.07;1.20;;;27.50;89.50;;;;;;5107602;28;20024;-51
2022/05/29 12:28:50;;;;;;;7.65;1.40;;;27.50;89.80;;;;;;5106147;28;20016;-50
2022/05/29 12:31:42;;;;;;;4.25;1.30;;;27.50;89.80;;;;;;5106644;28;20318;-54
2022/05/29 12:34:16;;;;;;;5.68;1.13;;;27.50;90.00;;;;;;5089607;28;20047;-56
2022/05/29 12:37:13;;;;;;;4.90;1.15;;;27.50;90.10;;;;;;5101671;28;20023;-56
2022/05/29 12:39:58;;;;;;;6.38;1.70;;;27.50;90.20;;;;;;5071721;28;20051;-53
2022/05/29 12:42:52;;;;;;;5.43;1.40;;;27.50;90.40;;;;;;5101954;28;20027;-53
2022/05/29 12:45:30;;;;;;;5.10;1.45;;;27.40;90.40;;;;;;5073931;28;20036;-57
2022/05/29 12:48:15;;;;;;;6.28;1.55;;;27.50;90.30;;;;;;5086164;28;20036;-59
2022/05/29 12:51:09;;;;;;;5.15;1.45;;;27.50;90.50;;;;;;5086552;28;20029;-54
2022/05/29 12:53:48;;;;;;;7.43;1.63;;;27.50;90.40;;;;;;5103908;28;20024;-55
2022/05/29 12:56:57;;;;;;;6.43;1.40;;;27.50;90.60;;;;;;5106467;28;20023;-58
2022/05/29 12:59:35;;;;;;;4.57;1.58;;;27.50;90.50;;;;;;5100355;28;20096;-54
2022/05/29 13:02:23;;;;;;;3.47;1.20;;;27.60;90.80;;;;;;5105033;28;20028;-57
2022/05/29 13:04:55;;;;;;;6.35;1.40;;;27.60;90.80;;;;;;5098519;28;20024;-56
2022/05/29 13:07:42;;;;;;;3.85;1.10;;;27.60;90.70;;;;;;5103071;28;20028;-53
2022/05/29 13:10:13;;;;;;;4.00;1.30;;;27.60;90.70;;;;;;5106290;28;20362;-52
2022/05/29 13:12:48;;;;;;;2.90;1.10;;;27.70;90.90;;;;;;5096438;28;20013;-54
2022/05/29 13:15:29;;;;;;;7.50;1.60;;;27.70;91.00;;;;;;5085831;28;20028;-54
2022/05/29 13:21:20;;;;;;;7.40;3.00;;;27.80;91.00;;;;;;5092310;28;20205;-56
2022/05/29 13:23:54;;;;;;;4.47;1.50;;;27.80;91.10;;;;;;5105320;28;20101;-53
2022/05/29 13:26:30;;;;;;;5.78;1.80;;;27.80;91.10;;;;;;5105617;28;20012;-53
2022/05/29 13:29:03;;;;;;;4.95;1.58;;;27.80;91.10;;;;;;5105565;28;20216;-52
2022/05/29 13:31:33;;;;;;;3.17;1.35;;;27.80;91.00;;;;;;5100430;28;20047;-55
2022/05/29 13:34:26;;;;;;;7.32;2.15;;;27.90;91.10;;;;;;5084965;28;20356;-57
2022/05/29 13:36:53;;;;;;;6.03;1.40;;;27.80;91.00;;;;;;5085197;28;20028;-56
2022/05/29 13:39:26;;;;;;;5.72;1.27;;;27.80;90.90;;;;;;5085067;28;20208;-56
2022/05/29 13:42:11;;;;;;;6.32;1.25;;;27.90;90.90;;;;;;5083854;28;20047;-52
2022/05/29 13:44:42;;;;;;;4.32;1.00;;;27.90;90.90;;;;;;5085061;28;20021;-53
2022/05/29 13:47:36;;;;;;;5.80;1.30;;;27.90;90.80;;;;;;5084932;28;20332;-56
2022/05/29 13:50:12;;;;;;;3.78;1.05;;;27.90;90.80;;;;;;5068583;28;20036;-52
2022/05/29 13:53:35;;;;;;;3.80;1.17;;;27.90;90.80;;;;;;5085055;28;20017;-61
2022/05/29 13:56:04;;;;;;;7.18;1.25;;;28.00;90.80;;;;;;5025626;28;20032;-53
2022/05/29 14:04:44;;;;;;;2.17;0.90;;;28.00;90.80;;;;;;5078616;28;20351;-54
2022/05/29 14:07:19;;;;;;;7.93;1.40;;;28.00;90.80;;;;;;5076836;28;20091;-52
2022/05/29 14:10:21;;;;;;;7.00;1.08;;;28.00;90.70;;;;;;5090747;28;20039;-60
2022/05/29 14:13:25;;;;;;;4.90;1.00;;;28.10;90.60;;;;;;5018369;28;20204;-56
2022/05/29 14:15:52;;;;;;;5.97;1.13;;;28.10;90.70;;;;;;5072288;28;20032;-52
2022/05/29 14:18:29;;;;;;;6.15;1.42;;;28.10;90.70;;;;;;5066227;28;20024;-54